createdAt,value
2022-08-10T00:00:37.108Z,13.20
2022-08-10T00:02:44.619Z,13.20
2022-08-10T00:04:52.573Z,13.20
2022-08-10T00:06:57.039Z,13.20
2022-08-10T00:09:04.016Z,13.10
2022-08-10T00:11:15.368Z,13.10
2022-08-10T00:13:20.787Z,13.10
2022-08-10T00:15:52.746Z,13.00
2022-08-10T00:17:51.795Z,13.00
2022-08-10T00:20:03.785Z,13.00
2022-08-10T00:22:16.896Z,12.90
2022-08-10T00:24:26.537Z,12.90
2022-08-10T00:27:58.521Z,12.90
2022-08-10T00:28:58.993Z,12.90
2022-08-10T00:31:03.475Z,12.90
2022-08-10T00:35:13.470Z,12.90
2022-08-10T00:37:18.572Z,12.80
2022-08-10T00:39:23.608Z,12.80
2022-08-10T00:41:28.289Z,12.70
2022-08-10T00:43:35.342Z,12.80
2022-08-10T00:45:39.448Z,12.70
2022-08-10T00:47:46.087Z,12.80
2022-08-10T00:49:52.821Z,12.70
2022-08-10T00:51:56.512Z,12.70
2022-08-10T00:54:02.618Z,12.70
2022-08-10T00:58:32.155Z,12.70
2022-08-10T01:02:44.109Z,12.80
2022-08-10T01:04:59.317Z,12.80
2022-08-10T01:07:16.167Z,12.80
2022-08-10T01:09:34.136Z,12.90
2022-08-10T01:12:38.865Z,12.90
2022-08-10T01:16:27.622Z,13.00
2022-08-10T01:20:53.864Z,13.20
2022-08-10T01:26:12.479Z,13.40
2022-08-10T01:28:23.489Z,13.60
2022-08-10T01:30:34.093Z,13.80
2022-08-10T01:32:59.114Z,14.00
2022-08-10T01:35:14.148Z,14.00
2022-08-10T01:37:23.251Z,14.10
2022-08-10T01:39:30.215Z,14.40
2022-08-10T01:41:46.201Z,14.60
2022-08-10T01:44:03.747Z,15.00
2022-08-10T01:46:12.946Z,15.40
2022-08-10T03:22:45.603Z,15.00
2022-08-10T03:26:57.325Z,14.80
2022-08-10T03:29:05.321Z,14.80
2022-08-10T03:31:09.982Z,15.00
2022-08-10T03:33:14.337Z,15.10
2022-08-10T03:35:23.023Z,15.10
2022-08-10T03:37:27.692Z,15.10
2022-08-10T03:39:31.743Z,15.20
2022-08-10T03:41:47.801Z,15.20
2022-08-10T03:44:03.353Z,15.10
2022-08-10T03:46:11.524Z,15.00
2022-08-10T03:50:45.678Z,15.10
2022-08-10T03:52:47.496Z,15.10
2022-08-10T03:54:52.442Z,15.10
2022-08-10T03:56:56.294Z,14.90
2022-08-10T04:11:59.992Z,14.40
2022-08-10T04:14:04.177Z,14.30
2022-08-10T04:16:08.387Z,14.20
2022-08-10T04:18:12.764Z,14.10
2022-08-10T04:20:21.834Z,14.10
2022-08-10T04:22:28.599Z,14.10
2022-08-10T04:24:35.609Z,14.10
2022-08-10T04:26:40.387Z,14.10
2022-08-10T04:28:49.018Z,14.20
2022-08-10T04:30:55.061Z,14.20
2022-08-10T04:33:03.679Z,14.30
2022-08-10T04:35:12.416Z,14.40
2022-08-10T04:37:17.445Z,14.60
2022-08-10T04:39:22.655Z,14.70
2022-08-10T04:41:30.143Z,14.80
2022-08-10T04:43:35.564Z,14.80
2022-08-10T04:45:48.361Z,15.10
2022-08-10T04:48:00.544Z,15.20
2022-08-10T04:50:08.593Z,15.20
2022-08-10T04:52:17.490Z,15.10
2022-08-10T04:54:21.471Z,15.40
2022-08-10T04:56:32.047Z,15.40
2022-08-10T04:58:36.314Z,15.40
2022-08-10T05:00:42.056Z,15.40
2022-08-10T05:02:46.588Z,15.30
2022-08-10T05:04:52.937Z,15.30
2022-08-10T05:09:01.513Z,15.80
2022-08-10T05:11:05.688Z,16.00
2022-08-10T05:13:12.495Z,16.00
2022-08-10T05:15:18.604Z,16.10
2022-08-10T05:17:22.758Z,16.20
2022-08-10T05:20:04.639Z,16.30
2022-08-10T05:24:09.114Z,16.80
2022-08-10T05:28:18.073Z,17.20
2022-08-10T05:30:25.044Z,17.20
2022-08-10T05:32:28.716Z,17.20
2022-08-10T05:38:41.692Z,17.60
2022-08-10T05:42:52.988Z,17.90
2022-08-10T05:44:58.452Z,18.00
2022-08-10T05:47:02.685Z,18.30
2022-08-10T05:49:06.527Z,18.50
2022-08-10T05:51:11.824Z,18.80
2022-08-10T05:55:39.453Z,18.90
2022-08-10T06:00:29.459Z,19.50
2022-08-10T06:02:41.705Z,19.80
2022-08-10T06:04:47.710Z,19.80
2022-08-10T06:06:53.736Z,20.20
2022-08-10T06:08:59.447Z,20.70
2022-08-10T06:35:35.910Z,23.20
2022-08-10T06:37:43.300Z,23.10
2022-08-10T06:39:57.997Z,23.10
2022-08-10T06:42:15.783Z,23.20
2022-08-10T06:44:27.512Z,23.40
2022-08-10T06:46:36.574Z,23.70
2022-08-10T06:55:16.974Z,26.00
2022-08-10T07:10:02.698Z,28.40
2022-08-10T07:16:28.351Z,28.70
2022-08-10T07:20:49.341Z,28.70
2022-08-10T07:40:25.282Z,33.00
2022-08-10T07:48:49.879Z,32.10
2022-08-10T07:50:59.422Z,32.00
2022-08-10T07:53:05.505Z,32.10
2022-08-10T07:57:24.952Z,28.90
2022-08-10T07:59:39.675Z,28.80
2022-08-10T08:08:22.767Z,30.80
2022-08-10T08:10:28.781Z,31.30
2022-08-10T08:12:37.188Z,30.80
2022-08-10T08:14:45.399Z,31.60
2022-08-10T08:41:41.641Z,34.30
2022-08-10T08:46:33.380Z,32.20
2022-08-10T08:48:55.237Z,32.10
2022-08-10T08:51:18.869Z,31.90
2022-08-10T08:54:03.015Z,30.40
2022-08-10T08:56:16.690Z,30.00
2022-08-10T08:58:37.220Z,31.10
2022-08-10T09:08:00.350Z,31.00
2022-08-10T09:12:46.716Z,30.10
2022-08-10T09:14:57.511Z,31.90
2022-08-10T09:17:13.687Z,33.40
2022-08-10T09:21:58.624Z,34.20
2022-08-10T09:24:20.352Z,32.80
2022-08-10T09:31:10.771Z,31.60
2022-08-10T09:36:24.755Z,35.00
2022-08-10T09:38:24.871Z,34.30
2022-08-10T09:40:59.768Z,36.00
2022-08-10T09:43:25.785Z,35.30
2022-08-10T09:50:58.978Z,34.30
2022-08-10T09:53:10.082Z,34.70
2022-08-10T09:55:18.688Z,34.80
2022-08-10T09:57:43.965Z,35.30
2022-08-10T10:02:27.670Z,32.70
2022-08-10T10:09:10.139Z,33.10
2022-08-10T10:13:52.691Z,33.90
2022-08-10T10:16:10.278Z,34.80
2022-08-10T10:20:43.701Z,34.80
2022-08-10T10:29:57.342Z,36.00
2022-08-10T10:32:10.095Z,35.60
2022-08-10T10:34:20.547Z,34.40
2022-08-10T10:36:26.189Z,34.80
2022-08-10T10:38:38.337Z,35.00
2022-08-10T10:47:47.761Z,37.70
2022-08-10T10:54:14.381Z,36.30
2022-08-10T11:21:06.490Z,36.00
2022-08-10T11:27:40.585Z,33.80
2022-08-10T11:29:53.384Z,32.70
2022-08-10T11:32:04.558Z,31.80
2022-08-10T11:34:48.975Z,30.90
2022-08-10T11:36:55.169Z,30.30
2022-08-10T11:50:49.563Z,34.80
2022-08-10T11:53:07.649Z,34.20
2022-08-10T11:57:21.148Z,32.20
2022-08-10T11:59:49.189Z,31.80
2022-08-10T12:06:28.793Z,33.30
2022-08-10T12:24:20.284Z,34.80
2022-08-10T12:26:28.414Z,35.30
2022-08-10T12:28:50.376Z,35.10
2022-08-10T12:31:05.369Z,34.40
2022-08-10T12:35:27.443Z,32.60
2022-08-10T12:37:40.342Z,32.80
2022-08-10T12:40:06.886Z,32.50
2022-08-10T12:42:36.844Z,32.30
2022-08-10T12:44:54.566Z,31.60
2022-08-10T12:47:10.474Z,30.90
2022-08-10T12:49:23.724Z,30.40
2022-08-10T12:51:30.546Z,30.80
2022-08-10T12:53:53.982Z,31.30
2022-08-10T13:03:04.732Z,32.00
2022-08-10T13:05:13.992Z,32.20
2022-08-10T13:10:02.401Z,32.40
2022-08-10T13:12:36.017Z,32.30
2022-08-10T13:16:48.482Z,32.30
2022-08-10T13:18:55.011Z,31.50
2022-08-10T13:30:10.426Z,30.50
2022-08-10T13:32:20.791Z,30.50
2022-08-10T13:34:43.766Z,30.80
2022-08-10T13:36:52.247Z,31.30
2022-08-10T13:38:58.422Z,30.50
2022-08-10T13:41:04.009Z,29.80
2022-08-10T13:43:10.332Z,29.40
2022-08-10T13:45:16.848Z,28.70
2022-08-10T13:47:29.300Z,28.60
2022-08-10T13:49:44.971Z,27.80
2022-08-10T13:51:56.606Z,27.90
2022-08-10T13:54:04.189Z,27.80
2022-08-10T13:56:14.605Z,27.60
2022-08-10T13:58:23.763Z,27.70
2022-08-10T14:00:38.248Z,27.60
2022-08-10T14:02:44.785Z,27.60
2022-08-10T14:04:48.838Z,27.50
2022-08-10T14:06:56.624Z,27.60
2022-08-10T14:11:18.029Z,28.80
2022-08-10T14:13:25.054Z,29.00
2022-08-10T14:15:33.894Z,29.60
2022-08-10T14:17:44.609Z,30.20
2022-08-10T14:19:59.054Z,30.10
2022-08-10T14:22:04.081Z,30.30
2022-08-10T14:24:08.356Z,30.40
2022-08-10T14:26:16.833Z,30.90
2022-08-10T14:30:28.897Z,30.60
2022-08-10T14:42:03.318Z,29.60
2022-08-10T14:46:07.041Z,28.70
2022-08-10T14:48:15.770Z,28.40
2022-08-10T14:50:31.698Z,28.20
2022-08-10T14:52:45.262Z,28.20
2022-08-10T14:54:53.954Z,28.10
2022-08-10T14:57:11.176Z,28.00
2022-08-10T14:59:19.511Z,27.80
2022-08-10T15:02:37.506Z,27.60
2022-08-10T15:04:01.028Z,27.50
2022-08-10T15:06:18.057Z,27.50
2022-08-10T15:08:26.349Z,27.60
2022-08-10T15:10:30.452Z,27.60
2022-08-10T15:12:38.467Z,27.40
2022-08-10T15:14:45.918Z,27.30
2022-08-10T15:16:50.378Z,27.30
2022-08-10T15:21:17.450Z,27.10
2022-08-10T15:23:29.836Z,27.00
2022-08-10T15:25:57.650Z,26.90
2022-08-10T15:28:13.592Z,26.80
2022-08-10T15:30:20.489Z,26.60
2022-08-10T15:32:50.418Z,26.40
2022-08-10T15:35:13.681Z,26.20
2022-08-10T15:40:25.401Z,26.30
2022-08-10T15:42:22.760Z,26.30
2022-08-10T15:44:38.612Z,26.20
2022-08-10T15:49:09.223Z,26.00
2022-08-10T15:51:21.287Z,26.00
2022-08-10T15:58:05.799Z,25.60
2022-08-10T16:00:18.240Z,25.80
2022-08-10T16:02:25.403Z,25.60
2022-08-10T16:04:34.483Z,25.50
2022-08-10T16:06:45.989Z,25.60
2022-08-10T16:11:24.302Z,25.60
2022-08-10T16:13:50.293Z,25.70
2022-08-10T16:16:04.358Z,25.70
2022-08-10T16:18:11.209Z,25.80
2022-08-10T16:20:25.051Z,25.70
2022-08-10T16:22:35.983Z,25.50
2022-08-10T16:29:06.431Z,25.30
2022-08-10T16:31:18.458Z,25.30
2022-08-10T16:33:52.440Z,25.30
2022-08-10T16:35:55.248Z,25.30
2022-08-10T16:38:00.224Z,25.20
2022-08-10T16:44:18.518Z,24.80
2022-08-10T16:46:27.470Z,24.80
2022-08-10T16:48:48.733Z,24.80
2022-08-10T16:50:58.191Z,24.60
2022-08-10T16:53:06.053Z,24.40
2022-08-10T16:55:24.762Z,24.10
2022-08-10T16:59:49.451Z,23.60
2022-08-10T17:01:57.534Z,23.50
2022-08-10T17:04:10.119Z,23.30
2022-08-10T17:06:20.848Z,23.20
2022-08-10T17:08:27.383Z,23.00
2022-08-10T17:10:36.299Z,23.00
2022-08-10T17:12:41.596Z,22.80
2022-08-10T17:15:09.129Z,22.60
2022-08-10T17:17:19.646Z,22.50
2022-08-10T17:19:29.422Z,22.60
2022-08-10T17:21:38.275Z,22.50
2022-08-10T17:23:58.022Z,22.30
2022-08-10T17:26:07.439Z,22.20
2022-08-10T17:28:18.645Z,22.20
2022-08-10T17:30:57.458Z,22.00
2022-08-10T17:33:05.780Z,21.90
2022-08-10T17:35:22.532Z,21.80
2022-08-10T17:37:33.193Z,21.70
2022-08-10T17:39:44.154Z,21.70
2022-08-10T17:41:54.653Z,21.60
2022-08-10T17:44:02.688Z,21.60
2022-08-10T17:46:07.575Z,21.60
2022-08-10T17:48:14.118Z,21.50
2022-08-10T17:50:24.424Z,21.40
2022-08-10T17:52:35.889Z,21.30
2022-08-10T17:54:44.292Z,21.20
2022-08-10T18:56:57.802Z,20.20
2022-08-10T18:59:13.354Z,20.10
2022-08-10T19:01:30.650Z,20.00
2022-08-10T19:04:04.885Z,19.90
2022-08-10T19:06:20.840Z,19.90
2022-08-10T19:09:04.484Z,19.80
2022-08-10T19:11:27.959Z,19.90
2022-08-10T19:15:46.513Z,19.60
2022-08-10T19:18:06.384Z,19.70
2022-08-10T19:20:24.254Z,19.60
2022-08-10T19:22:43.450Z,19.40
2022-08-10T19:24:58.156Z,19.30
2022-08-10T19:27:11.643Z,19.20
2022-08-10T19:30:08.375Z,19.20
2022-08-10T19:32:05.622Z,19.10
2022-08-10T19:34:24.434Z,18.90
2022-08-10T19:36:37.442Z,18.80
2022-08-10T19:38:50.867Z,18.70
2022-08-10T19:41:10.322Z,18.50
2022-08-10T19:43:30.753Z,18.40
2022-08-10T19:46:02.708Z,18.30
2022-08-10T19:48:20.961Z,18.20
2022-08-10T19:50:34.595Z,18.20
2022-08-10T19:52:48.613Z,18.10
2022-08-10T19:55:00.010Z,18.00
2022-08-10T19:57:12.927Z,17.90
2022-08-10T20:00:15.610Z,17.90
2022-08-10T20:01:56.428Z,17.80
2022-08-10T20:04:05.527Z,17.80
2022-08-10T20:06:20.623Z,17.80
2022-08-10T20:08:29.760Z,17.80
2022-08-10T20:10:43.053Z,17.80
2022-08-10T20:12:56.223Z,17.80
2022-08-10T20:15:06.258Z,17.80
2022-08-10T20:17:18.018Z,17.80
2022-08-10T20:19:53.198Z,17.90
2022-08-10T20:21:58.667Z,17.90
2022-08-10T20:24:11.207Z,17.90
2022-08-10T20:26:24.187Z,18.00
2022-08-10T20:28:37.567Z,18.00
2022-08-10T20:30:50.010Z,18.10
2022-08-10T20:32:57.894Z,18.10
2022-08-10T20:35:08.038Z,18.20
2022-08-10T20:38:03.175Z,18.20
2022-08-10T20:39:55.969Z,18.20
2022-08-10T20:42:05.889Z,18.30
2022-08-10T20:44:21.000Z,18.30
2022-08-10T20:46:45.501Z,18.30
2022-08-10T20:49:11.403Z,18.20
2022-08-10T20:51:58.483Z,18.10
2022-08-10T20:53:55.686Z,18.00
2022-08-10T20:56:11.843Z,17.80
2022-08-10T20:58:37.653Z,17.80
2022-08-10T21:00:54.622Z,17.70
2022-08-10T21:03:22.031Z,17.60
2022-08-10T21:05:40.652Z,17.60
2022-08-10T21:08:02.890Z,17.50
2022-08-10T21:10:20.153Z,17.40
2022-08-10T21:12:46.206Z,17.40
2022-08-10T21:17:13.862Z,17.50
2022-08-10T21:19:54.008Z,17.40
2022-08-10T21:22:16.844Z,17.20
2022-08-10T21:24:25.928Z,17.10
2022-08-10T21:26:41.346Z,17.00
2022-08-10T21:29:21.284Z,16.90
2022-08-10T21:31:48.520Z,16.80
2022-08-10T21:34:10.125Z,16.80
2022-08-10T21:36:22.207Z,16.70
2022-08-10T21:38:35.466Z,16.60
2022-08-10T21:41:18.689Z,16.60
2022-08-10T21:44:02.263Z,16.60
2022-08-10T21:46:39.940Z,16.50
2022-08-10T21:49:22.817Z,16.40
2022-08-10T21:52:01.418Z,16.30
2022-08-10T21:54:31.110Z,16.30
2022-08-10T21:56:59.768Z,16.20
2022-08-10T21:59:24.365Z,16.10
2022-08-10T22:04:20.601Z,16.00
2022-08-10T22:06:52.302Z,15.90
2022-08-10T22:09:20.764Z,15.90
2022-08-10T22:11:45.135Z,15.80
2022-08-10T22:14:09.618Z,15.80
2022-08-10T22:16:43.329Z,15.80
2022-08-10T22:19:14.945Z,15.80
2022-08-10T22:21:52.030Z,15.80
2022-08-10T22:24:30.234Z,15.80
2022-08-10T22:29:42.913Z,15.80
2022-08-10T22:32:15.858Z,15.60
2022-08-10T22:37:32.208Z,15.50
2022-08-10T22:40:13.868Z,15.40
2022-08-10T22:42:58.957Z,15.30
2022-08-10T22:45:26.543Z,15.20
2022-08-10T22:47:50.373Z,15.20
2022-08-10T22:49:57.160Z,15.30
2022-08-10T22:52:16.161Z,15.30
2022-08-10T22:54:45.298Z,15.20
2022-08-10T22:57:07.297Z,15.30
2022-08-10T22:59:13.509Z,15.40
2022-08-10T23:01:40.751Z,15.50
2022-08-10T23:03:51.547Z,15.50
2022-08-10T23:06:02.184Z,15.50
2022-08-10T23:08:30.057Z,15.50
2022-08-10T23:12:49.739Z,15.50
2022-08-10T23:15:15.793Z,15.60
2022-08-10T23:18:00.418Z,15.50
2022-08-10T23:20:10.269Z,15.50
2022-08-10T23:22:16.253Z,15.50
2022-08-10T23:24:28.903Z,15.50
2022-08-10T23:26:34.598Z,15.50
2022-08-10T23:28:58.199Z,15.50
2022-08-10T23:31:12.472Z,15.50
2022-08-10T23:33:38.302Z,15.60
2022-08-10T23:36:05.480Z,15.60
2022-08-10T23:38:16.677Z,15.60
2022-08-10T23:40:23.409Z,15.90
2022-08-10T23:42:37.795Z,16.20
2022-08-10T23:44:45.137Z,16.40
2022-08-10T23:46:49.806Z,16.60
2022-08-10T23:48:55.861Z,16.80
2022-08-10T23:51:03.491Z,16.80
2022-08-10T23:53:28.875Z,16.80
2022-08-10T23:55:49.442Z,16.80
2022-08-10T23:57:59.721Z,16.80
